| time (UTC) | temp C | wind direction | speed KPH | gust KPH | rain 1hr cm | rain 24hr cm | rain mn cm | humidity % | barometer mb |
| 20260504031020 | 11 | 242 | 8.0 | 33.8 | 0.00 | 0.00 | 0.00 | 54 | 1008.3 |
| 20260504030520 | 11 | 213 | 12.9 | 33.8 | 0.00 | 0.00 | 0.00 | 54 | 1008.3 |
| 20260504030043 | 11 | 219 | 8.0 | 24.1 | 0.00 | 0.00 | 0.00 | 55 | 1008.4 |
| 20260504025521 | 11 | 180 | 9.7 | 24.1 | 0.00 | 0.00 | 0.00 | 55 | 1008.4 |
| 20260504025021 | 11 | 213 | 9.7 | 29.0 | 0.00 | 0.00 | 0.00 | 55 | 1008.4 |
| 20260504024539 | 11 | 201 | 9.7 | 27.4 | 0.00 | 0.00 | 0.00 | 56 | 1008.5 |
| 20260504024024 | 11 | 235 | 11.3 | 25.7 | 0.00 | 0.00 | 0.00 | 56 | 1008.3 |
| 20260504023521 | 11 | 156 | 11.3 | 30.6 | 0.00 | 0.00 | 0.00 | 56 | 1008.5 |
| 20260504023037 | 11 | 212 | 11.3 | 30.6 | 0.00 | 0.00 | 0.00 | 57 | 1008.5 |
| 20260504022521 | 11 | 165 | 9.7 | 30.6 | 0.00 | 0.00 | 0.00 | 57 | 1008.6 |
| 20260504022023 | 11 | 244 | 9.7 | 24.1 | 0.00 | 0.00 | 0.00 | 56 | 1008.7 |
| 20260504021537 | 11 | 209 | 11.3 | 30.6 | 0.00 | 0.00 | 0.00 | 56 | 1008.5 |
| 20260504021020 | 11 | 213 | 11.3 | 30.6 | 0.00 | 0.00 | 0.00 | 55 | 1008.6 |
| 20260504020520 | 11 | 264 | 8.0 | 27.4 | 0.00 | 0.00 | 0.00 | 55 | 1008.6 |
| 20260504020038 | 11 | 214 | 9.7 | 24.1 | 0.00 | 0.00 | 0.00 | 56 | 1008.6 |
| 20260504015520 | 11 | 242 | 8.0 | 29.0 | 0.00 | 0.00 | 0.00 | 56 | 1008.6 |
| 20260504015024 | 11 | 211 | 8.0 | 29.0 | 0.00 | 0.00 | 0.00 | 56 | 1008.6 |
| 20260504014551 | 11 | 212 | 11.3 | 29.0 | 0.00 | 0.00 | 0.00 | 56 | 1008.6 |
| 20260504014024 | 11 | 234 | 9.7 | 29.0 | 0.00 | 0.00 | 0.00 | 56 | 1008.6 |
| 20260504013525 | 11 | 211 | 12.9 | 29.0 | 0.00 | 0.00 | 0.00 | 56 | 1008.7 |
| 20260504013036 | 10 | 232 | 14.5 | 29.0 | 0.00 | 0.00 | 0.00 | 55 | 1008.6 |
| 20260504012522 | 10 | 205 | 12.9 | 27.4 | 0.00 | 0.00 | 0.00 | 56 | 1008.6 |
| 20260504012021 | 10 | 211 | 9.7 | 27.4 | 0.00 | 0.00 | 0.00 | 57 | 1008.6 |
| 20260504011540 | 10 | 177 | 9.7 | 27.4 | 0.00 | 0.00 | 0.00 | 56 | 1008.6 |
| 20260504011020 | 10 | 228 | 8.0 | 27.4 | 0.00 | 0.00 | 0.00 | 56 | 1008.5 |
| 20260504010523 | 10 | 243 | 8.0 | 27.4 | 0.00 | 0.00 | 0.00 | 56 | 1008.5 |
| 20260504010038 | 10 | 214 | 11.3 | 29.0 | 0.00 | 0.00 | 0.00 | 56 | 1008.4 |
| 20260504005525 | 10 | 225 | 16.1 | 29.0 | 0.00 | 0.00 | 0.00 | 56 | 1008.4 |
| 20260504005021 | 10 | 219 | 8.0 | 29.0 | 0.00 | 0.00 | 0.00 | 57 | 1008.4 |
| 20260504004537 | 10 | 228 | 9.7 | 22.5 | 0.00 | 0.00 | 0.00 | 57 | 1008.5 |
| 20260504004020 | 10 | 220 | 8.0 | 19.3 | 0.00 | 0.00 | 0.00 | 57 | 1008.5 |
| 20260504003521 | 10 | 182 | 8.0 | 19.3 | 0.00 | 0.00 | 0.00 | 56 | 1008.5 |
| 20260504003045 | 10 | 219 | 6.4 | 19.3 | 0.00 | 0.00 | 0.00 | 57 | 1008.6 |
| 20260504002521 | 10 | 213 | 4.8 | 22.5 | 0.00 | 0.00 | 0.00 | 57 | 1008.6 |
| 20260504002020 | 10 | 40 | 6.4 | 37.0 | 0.00 | 0.00 | 0.00 | 56 | 1008.6 |
| 20260504001537 | 10 | 201 | 11.3 | 37.0 | 0.00 | 0.00 | 0.00 | 56 | 1008.6 |
| 20260504001020 | 10 | 207 | 8.0 | 27.4 | 0.00 | 0.00 | 0.00 | 57 | 1008.7 |
| 20260504000520 | 10 | 224 | 8.0 | 24.1 | 0.00 | 0.00 | 0.00 | 58 | 1008.8 |
| 20260504000037 | 10 | 323 | 9.7 | 24.1 | 0.00 | 0.00 | 0.00 | 59 | 1008.7 |
| 20260503235521 | 10 | 221 | 11.3 | 24.1 | 0.00 | 0.00 | 0.00 | 58 | 1008.9 |
| 20260503235021 | 10 | 148 | 8.0 | 32.2 | 0.00 | 0.00 | 0.00 | 58 | 1008.8 |
| 20260503234545 | 11 | 242 | 4.8 | 32.2 | 0.00 | 0.00 | 0.00 | 59 | 1008.9 |
| 20260503234021 | 11 | 207 | 9.7 | 22.5 | 0.00 | 0.00 | 0.00 | 58 | 1008.9 |
| 20260503233521 | 10 | 227 | 6.4 | 19.3 | 0.00 | 0.00 | 0.00 | 60 | 1009.0 |
| 20260503233037 | 10 | 254 | 6.4 | 20.9 | 0.00 | 0.00 | 0.00 | 60 | 1009.1 |
| 20260503232520 | 10 | 221 | 9.7 | 20.9 | 0.00 | 0.00 | 0.00 | 60 | 1009.1 |
| 20260503232021 | 10 | 215 | 4.8 | 24.1 | 0.00 | 0.00 | 0.00 | 60 | 1009.1 |
| 20260503231537 | 10 | 286 | 6.4 | 30.6 | 0.00 | 0.00 | 0.00 | 61 | 1009.0 |
| 20260503231024 | 10 | 236 | 6.4 | 30.6 | 0.00 | 0.00 | 0.00 | 61 | 1009.2 |
| 20260503230524 | 10 | 230 | 11.3 | 30.6 | 0.00 | 0.00 | 0.00 | 59 | 1009.1 |
| 20260503230042 | 10 | 195 | 8.0 | 29.0 | 0.00 | 0.00 | 0.00 | 60 | 1009.1 |
| 20260503225530 | 10 | 192 | 6.4 | 29.0 | 0.00 | 0.00 | 0.00 | 61 | 1009.1 |
| 20260503225023 | 10 | 217 | 12.9 | 29.0 | 0.00 | 0.00 | 0.00 | 59 | 1009.1 |
| 20260503224537 | 10 | 213 | 8.0 | 25.7 | 0.00 | 0.00 | 0.00 | 60 | 1009.0 |
| 20260503224020 | 10 | 225 | 9.7 | 25.7 | 0.00 | 0.00 | 0.00 | 61 | 1009.0 |
| 20260503223524 | 10 | 296 | 12.9 | 25.7 | 0.00 | 0.00 | 0.00 | 61 | 1009.1 |
| 20260503223041 | 10 | 237 | 12.9 | 35.4 | 0.00 | 0.00 | 0.00 | 61 | 1009.2 |
| 20260503222520 | 10 | 146 | 11.3 | 38.6 | 0.00 | 0.00 | 0.00 | 61 | 1009.1 |
| 20260503222024 | 10 | 219 | 12.9 | 38.6 | 0.00 | 0.00 | 0.00 | 61 | 1009.2 |
| 20260503221538 | 10 | 236 | 9.7 | 32.2 | 0.00 | 0.00 | 0.00 | 61 | 1009.1 |
| 20260503221021 | 10 | 240 | 12.9 | 32.2 | 0.00 | 0.00 | 0.00 | 62 | 1009.1 |
| 20260503220524 | 10 | 231 | 11.3 | 25.7 | 0.00 | 0.00 | 0.00 | 61 | 1008.9 |
| 20260503220046 | 10 | 242 | 11.3 | 35.4 | 0.00 | 0.00 | 0.00 | 60 | 1009.0 |
| 20260503215523 | 10 | 211 | 14.5 | 35.4 | 0.00 | 0.00 | 0.00 | 60 | 1008.9 |
| 20260503215020 | 10 | 254 | 9.7 | 25.7 | 0.00 | 0.00 | 0.00 | 60 | 1008.9 |
| 20260503214537 | 10 | 198 | 14.5 | 38.6 | 0.00 | 0.00 | 0.00 | 60 | 1008.9 |
| 20260503214020 | 10 | 246 | 16.1 | 38.6 | 0.00 | 0.00 | 0.00 | 59 | 1008.7 |
| 20260503213520 | 10 | 231 | 11.3 | 38.6 | 0.00 | 0.00 | 0.00 | 60 | 1008.7 |
| 20260503213035 | 10 | 196 | 16.1 | 30.6 | 0.00 | 0.00 | 0.00 | 60 | 1008.7 |
| 20260503212520 | 10 | 192 | 8.0 | 33.8 | 0.00 | 0.00 | 0.00 | 61 | 1008.7 |
| 20260503212021 | 10 | 226 | 11.3 | 33.8 | 0.00 | 0.00 | 0.00 | 61 | 1008.8 |
| 20260503211537 | 10 | 279 | 12.9 | 30.6 | 0.00 | 0.00 | 0.00 | 60 | 1008.7 |
| 20260503211023 | 10 | 220 | 11.3 | 30.6 | 0.00 | 0.00 | 0.00 | 61 | 1009.0 |
| 20260503210521 | 10 | 214 | 11.3 | 27.4 | 0.00 | 0.00 | 0.00 | 60 | 1008.8 |
| 20260503210040 | 10 | 173 | 11.3 | 24.1 | 0.00 | 0.00 | 0.00 | 60 | 1008.9 |
| 20260503205523 | 10 | 223 | 9.7 | 30.6 | 0.00 | 0.00 | 0.00 | 60 | 1008.9 |
| 20260503205021 | 10 | 204 | 16.1 | 29.0 | 0.00 | 0.00 | 0.00 | 57 | 1008.9 |
| 20260503204539 | 10 | 223 | 14.5 | 29.0 | 0.00 | 0.00 | 0.00 | 57 | 1009.0 |
| 20260503204020 | 10 | 181 | 14.5 | 29.0 | 0.00 | 0.00 | 0.00 | 56 | 1009.0 |
| 20260503203521 | 11 | 292 | 9.7 | 30.6 | 0.00 | 0.00 | 0.00 | 57 | 1009.0 |
| 20260503203038 | 11 | 181 | 12.9 | 32.2 | 0.00 | 0.00 | 0.00 | 56 | 1009.1 |
| 20260503202521 | 11 | 202 | 9.7 | 32.2 | 0.00 | 0.00 | 0.00 | 56 | 1008.9 |
| 20260503202022 | 10 | 241 | 14.5 | 32.2 | 0.00 | 0.00 | 0.00 | 54 | 1009.1 |
| 20260503201536 | 10 | 215 | 11.3 | 35.4 | 0.00 | 0.00 | 0.00 | 55 | 1009.2 |
| 20260503201020 | 10 | 252 | 16.1 | 32.2 | 0.00 | 0.00 | 0.00 | 55 | 1009.3 |
| 20260503200520 | 10 | 207 | 14.5 | 41.8 | 0.00 | 0.00 | 0.00 | 53 | 1009.2 |
| 20260503200037 | 11 | 196 | 12.9 | 43.5 | 0.00 | 0.00 | 0.00 | 53 | 1009.3 |
| 20260503195523 | 11 | 242 | 16.1 | 43.5 | 0.00 | 0.00 | 0.00 | 52 | 1009.5 |
| 20260503195020 | 11 | 238 | 17.7 | 33.8 | 0.00 | 0.00 | 0.00 | 52 | 1009.6 |
| 20260503194539 | 11 | 216 | 12.9 | 33.8 | 0.00 | 0.00 | 0.00 | 53 | 1009.7 |
| 20260503194020 | 10 | 226 | 14.5 | 30.6 | 0.00 | 0.00 | 0.00 | 52 | 1009.8 |
| 20260503193524 | 11 | 183 | 14.5 | 30.6 | 0.00 | 0.00 | 0.00 | 53 | 1009.8 |
| 20260503193039 | 11 | 223 | 9.7 | 37.0 | 0.00 | 0.00 | 0.00 | 53 | 1009.9 |
| 20260503192521 | 10 | 134 | 9.7 | 37.0 | 0.00 | 0.00 | 0.00 | 53 | 1010.1 |
| 20260503192021 | 11 | 189 | 14.5 | 33.8 | 0.00 | 0.00 | 0.00 | 50 | 1010.1 |
| 20260503191539 | 11 | 275 | 12.9 | 35.4 | 0.00 | 0.00 | 0.00 | 49 | 1010.1 |
| 20260503191021 | 11 | 213 | 11.3 | 38.6 | 0.00 | 0.00 | 0.00 | 50 | 1010.2 |
| 20260503190520 | 11 | 255 | 17.7 | 35.4 | 0.00 | 0.00 | 0.00 | 47 | 1010.2 |
| 20260503190037 | 11 | 207 | 19.3 | 43.5 | 0.00 | 0.00 | 0.00 | 48 | 1010.2 |
| 20260503185520 | 11 | 236 | 16.1 | 43.5 | 0.00 | 0.00 | 0.00 | 47 | 1010.1 |
| 20260503185023 | 11 | 224 | 17.7 | 40.2 | 0.00 | 0.00 | 0.00 | 45 | 1010.2 |
| 20260503184544 | 11 | 175 | 16.1 | 30.6 | 0.00 | 0.00 | 0.00 | 45 | 1010.2 |
| 20260503184021 | 11 | 196 | 11.3 | 33.8 | 0.00 | 0.00 | 0.00 | 45 | 1010.3 |
| 20260503183520 | 11 | 292 | 12.9 | 33.8 | 0.00 | 0.00 | 0.00 | 43 | 1010.3 |
| 20260503183052 | 11 | 208 | 12.9 | 40.2 | 0.00 | 0.00 | 0.00 | 43 | 1010.4 |
| 20260503182520 | 11 | 279 | 16.1 | 40.2 | 0.00 | 0.00 | 0.00 | 43 | 1010.3 |
| 20260503182023 | 11 | 240 | 16.1 | 45.1 | 0.00 | 0.00 | 0.00 | 42 | 1010.4 |
| 20260503181538 | 11 | 70 | 16.1 | 45.1 | 0.00 | 0.00 | 0.00 | 44 | 1010.6 |
| 20260503181024 | 11 | 209 | 16.1 | 32.2 | 0.00 | 0.00 | 0.00 | 43 | 1010.7 |
| 20260503180520 | 10 | 221 | 14.5 | 32.2 | 0.00 | 0.00 | 0.00 | 41 | 1010.7 |
| 20260503180037 | 11 | 188 | 8.0 | 29.0 | 0.00 | 0.00 | 0.00 | 46 | 1010.7 |
| 20260503175521 | 10 | 200 | 9.7 | 29.0 | 0.00 | 0.00 | 0.00 | 44 | 1011.1 |
| 20260503175025 | 10 | 198 | 8.0 | 25.7 | 0.00 | 0.00 | 0.00 | 50 | 1011.2 |
| 20260503174533 | 10 | 184 | 12.9 | 25.7 | 0.00 | 0.00 | 0.00 | 49 | 1011.3 |
| 20260503174021 | 10 | 240 | 9.7 | 35.4 | 0.00 | 0.00 | 0.00 | 50 | 1011.3 |
| 20260503173524 | 10 | 219 | 11.3 | 35.4 | 0.00 | 0.00 | 0.00 | 50 | 1011.4 |
| 20260503173038 | 9 | 249 | 16.1 | 32.2 | 0.00 | 0.00 | 0.00 | 51 | 1011.4 |
| 20260503172521 | 10 | 208 | 16.1 | 30.6 | 0.00 | 0.00 | 0.00 | 50 | 1011.4 |
| 20260503172020 | 10 | 196 | 11.3 | 29.0 | 0.00 | 0.00 | 0.00 | 55 | 1011.5 |
| 20260503171537 | 9 | 178 | 6.4 | 20.9 | 0.00 | 0.00 | 0.00 | 55 | 1011.6 |
| 20260503171020 | 9 | 232 | 8.0 | 22.5 | 0.00 | 0.00 | 0.00 | 54 | 1011.7 |
| 20260503170521 | 10 | 230 | 8.0 | 24.1 | 0.00 | 0.00 | 0.00 | 56 | 1011.7 |
| 20260503150520 | 8 | 270 | 11.3 | 25.7 | 0.00 | 0.00 | 0.00 | 55 | 1012.4 |
| 20260503131020 | 6 | 271 | 9.7 | 17.7 | 0.00 | 0.00 | 0.00 | 74 | 1013.1 |
| 20260503130520 | 6 | 222 | 8.0 | 19.3 | 0.00 | 0.00 | 0.00 | 76 | 1013.2 |
| 20260503110520 | 0 | 173 | 1.6 | 4.8 | 0.00 | 0.00 | 0.00 | 91 | 1013.2 |
| 20260503081604 | 0 | 0 | 0.0 | 1.6 | 0.00 | 0.00 | 0.00 | 91 | 1013.2 |
| 20260503081021 | 0 | 0 | 0.0 | 3.2 | 0.00 | 0.00 | 0.00 | 91 | 1013.2 |
| 20260503080521 | 0 | 0 | 0.0 | 3.2 | 0.00 | 0.00 | 0.00 | 91 | 1013.1 |
| 20260503072522 | 0 | 173 | 1.6 | 3.2 | 0.00 | 0.00 | 0.00 | 91 | 1013.1 |
| 20260503072021 | 0 | 0 | 0.0 | 3.2 | 0.00 | 0.00 | 0.00 | 90 | 1013.1 |
| 20260503071537 | 0 | 173 | 0.0 | 3.2 | 0.00 | 0.00 | 0.00 | 90 | 1013.2 |
| 20260503071022 | 0 | 0 | 0.0 | 3.2 | 0.00 | 0.00 | 0.00 | 90 | 1013.1 |
| 20260503070522 | 0 | 0 | 0.0 | 3.2 | 0.00 | 0.00 | 0.00 | 89 | 1013.2 |
| 20260503055021 | 1 | 173 | 0.0 | 3.2 | 0.00 | 0.00 | 0.00 | 86 | 1013.5 |
| 20260503054544 | 1 | 0 | 0.0 | 3.2 | 0.00 | 0.00 | 0.00 | 86 | 1013.4 |
| 20260503054024 | 1 | 173 | 0.0 | 3.2 | 0.00 | 0.00 | 0.00 | 86 | 1013.5 |
| 20260503053521 | 1 | 173 | 0.0 | 3.2 | 0.00 | 0.00 | 0.00 | 85 | 1013.5 |
| 20260503053039 | 1 | 173 | 0.0 | 4.8 | 0.00 | 0.00 | 0.00 | 85 | 1013.5 |
| 20260503052521 | 1 | 173 | 0.0 | 4.8 | 0.00 | 0.00 | 0.00 | 85 | 1013.6 |
| 20260503052021 | 1 | 0 | 0.0 | 4.8 | 0.00 | 0.00 | 0.00 | 84 | 1013.7 |
| 20260503051537 | 1 | 173 | 0.0 | 3.2 | 0.00 | 0.00 | 0.00 | 84 | 1013.7 |
| 20260503051020 | 1 | 173 | 0.0 | 3.2 | 0.00 | 0.00 | 0.00 | 83 | 1013.7 |
| 20260503050524 | 2 | 173 | 1.6 | 4.8 | 0.00 | 0.00 | 0.00 | 83 | 1013.7 |
| 20260503050040 | 2 | 173 | 1.6 | 4.8 | 0.00 | 0.00 | 0.00 | 83 | 1013.8 |
| 20260503045521 | 2 | 173 | 0.0 | 8.0 | 0.00 | 0.00 | 0.00 | 82 | 1013.8 |
| 20260503045024 | 2 | 173 | 1.6 | 8.0 | 0.00 | 0.00 | 0.00 | 82 | 1013.8 |
| 20260503044541 | 2 | 175 | 1.6 | 8.0 | 0.00 | 0.00 | 0.00 | 81 | 1013.7 |
| 20260503044020 | 2 | 175 | 0.0 | 8.0 | 0.00 | 0.00 | 0.00 | 81 | 1013.8 |
| 20260503043521 | 2 | 175 | 1.6 | 4.8 | 0.00 | 0.00 | 0.00 | 81 | 1013.9 |
| 20260503043037 | 2 | 175 | 1.6 | 4.8 | 0.00 | 0.00 | 0.00 | 80 | 1013.9 |
| 20260503042521 | 2 | 175 | 0.0 | 8.0 | 0.00 | 0.00 | 0.00 | 79 | 1014.0 |
| 20260503042020 | 3 | 0 | 1.6 | 6.4 | 0.00 | 0.00 | 0.00 | 79 | 1014.0 |
| 20260503041535 | 3 | 175 | 1.6 | 6.4 | 0.00 | 0.00 | 0.00 | 78 | 1014.0 |
| 20260503041021 | 3 | 175 | 1.6 | 9.7 | 0.00 | 0.00 | 0.00 | 78 | 1014.0 |
| 20260503040521 | 3 | 211 | 1.6 | 9.7 | 0.00 | 0.00 | 0.00 | 77 | 1014.1 |
| 20260503040045 | 3 | 176 | 3.2 | 8.0 | 0.00 | 0.00 | 0.00 | 77 | 1014.1 |
| 20260503035521 | 3 | 221 | 1.6 | 6.4 | 0.00 | 0.00 | 0.00 | 76 | 1014.1 |
| 20260503035022 | 3 | 241 | 1.6 | 4.8 | 0.00 | 0.00 | 0.00 | 76 | 1014.1 |
| 20260503034546 | 3 | 199 | 0.0 | 3.2 | 0.00 | 0.00 | 0.00 | 75 | 1014.1 |
| 20260503034021 | 3 | 199 | 0.0 | 3.2 | 0.00 | 0.00 | 0.00 | 75 | 1014.1 |
| 20260503033521 | 3 | 199 | 0.0 | 3.2 | 0.00 | 0.00 | 0.00 | 75 | 1014.1 |
| 20260503033049 | 3 | 0 | 0.0 | 4.8 | 0.00 | 0.00 | 0.00 | 74 | 1014.1 |
| 20260503032520 | 3 | 199 | 0.0 | 4.8 | 0.00 | 0.00 | 0.00 | 74 | 1014.1 |
| 20260503032025 | 3 | 199 | 1.6 | 4.8 | 0.00 | 0.00 | 0.00 | 73 | 1014.1 |
| 20260503031550 | 3 | 0 | 0.0 | 3.2 | 0.00 | 0.00 | 0.00 | 74 | 1014.1 |